createdAt,value
2023-04-24T03:47:57.535Z,863.88
2023-04-24T03:50:24.428Z,845.03
2023-04-24T03:52:51.084Z,853.50
2023-04-24T03:55:17.712Z,833.40
2023-04-24T03:57:44.315Z,845.92
2023-04-24T04:00:12.004Z,837.13
2023-04-24T04:02:38.687Z,832.00
2023-04-24T04:05:06.070Z,829.40
2023-04-24T04:07:32.835Z,835.75
2023-04-24T04:09:59.524Z,820.53
2023-04-24T04:12:26.283Z,825.13
2023-04-24T04:14:52.939Z,822.30
2023-04-24T04:17:19.630Z,832.42
2023-04-24T04:19:46.230Z,827.00
2023-04-24T04:22:12.833Z,828.33
2023-04-24T04:24:41.437Z,824.63
2023-04-24T04:27:08.995Z,831.13
2023-04-24T04:29:36.704Z,821.92
2023-04-24T04:32:03.824Z,822.90
2023-04-24T04:34:30.733Z,819.47
2023-04-24T04:37:00.453Z,825.92
2023-04-24T04:39:29.147Z,824.20
2023-04-24T04:41:55.844Z,826.33
2023-04-24T04:44:22.496Z,824.20
2023-04-24T04:46:49.313Z,822.15
2023-04-24T04:49:17.717Z,815.88
2023-04-24T04:51:44.431Z,823.67
2023-04-24T04:54:11.111Z,816.40
2023-04-24T04:56:37.736Z,824.10
2023-04-24T04:59:04.396Z,816.33
2023-04-24T05:01:31.353Z,816.55
2023-04-24T05:03:58.347Z,820.88
2023-04-24T05:06:25.317Z,822.22
2023-04-24T05:08:52.207Z,829.38
2023-04-24T05:11:18.855Z,826.05
2023-04-24T05:13:45.548Z,820.23
2023-04-24T05:16:12.202Z,823.17
2023-04-24T05:18:39.036Z,825.30
2023-04-24T05:21:05.770Z,827.70
2023-04-24T05:23:32.580Z,827.37
2023-04-24T05:25:59.220Z,828.05
2023-04-24T05:28:29.241Z,822.78
2023-04-24T05:30:56.888Z,822.75
2023-04-24T05:33:24.030Z,825.88
2023-04-24T05:35:50.696Z,820.03
2023-04-24T05:38:20.677Z,828.33
2023-04-24T05:40:47.358Z,821.05
2023-04-24T05:43:14.598Z,829.65
2023-04-24T05:45:41.280Z,822.42
2023-04-24T05:48:07.913Z,833.75
2023-04-24T05:50:36.794Z,829.30
2023-04-24T05:53:04.530Z,845.90
2023-04-24T05:55:32.315Z,840.88
2023-04-24T05:57:59.100Z,832.22
2023-04-24T06:00:26.318Z,825.28
2023-04-24T06:02:53.968Z,837.08
2023-04-24T06:05:21.218Z,834.63
2023-04-24T06:07:49.007Z,842.40
2023-04-24T06:10:15.869Z,830.15
2023-04-24T06:12:42.703Z,844.50
2023-04-24T06:15:09.756Z,839.53
2023-04-24T06:17:36.483Z,838.05
2023-04-24T06:20:06.119Z,849.20
2023-04-24T06:22:32.907Z,847.10
2023-04-24T06:25:01.604Z,842.15
2023-04-24T06:27:28.297Z,845.20
2023-04-24T06:29:56.149Z,858.75
2023-04-24T06:32:24.455Z,865.97
2023-04-24T06:34:53.240Z,868.22
2023-04-24T06:37:21.444Z,861.50
2023-04-24T06:39:48.368Z,863.83
2023-04-24T06:42:15.177Z,862.85
2023-04-24T06:44:42.118Z,863.30
2023-04-24T06:47:14.485Z,862.92
2023-04-24T06:49:41.281Z,874.47
2023-04-24T06:52:08.416Z,877.63
2023-04-24T06:54:35.084Z,874.92
2023-04-24T06:57:03.357Z,886.70
2023-04-24T06:59:30.658Z,883.03
2023-04-24T07:01:58.064Z,893.03
2023-04-24T07:04:26.327Z,890.60
2023-04-24T07:06:56.756Z,895.60
2023-04-24T07:09:24.704Z,893.50
2023-04-24T07:11:52.310Z,887.20
2023-04-24T07:14:19.064Z,899.30
2023-04-24T07:16:46.228Z,898.13
2023-04-24T07:19:14.099Z,891.78
2023-04-24T07:21:41.032Z,899.15
2023-04-24T07:24:11.608Z,901.00
2023-04-24T07:26:38.474Z,903.22
2023-04-24T07:29:05.147Z,902.90
2023-04-24T07:31:31.807Z,913.90
2023-04-24T07:33:59.194Z,910.50
2023-04-24T07:36:26.935Z,912.97
2023-04-24T07:38:53.983Z,915.72
2023-04-24T07:41:23.611Z,891.27
2023-04-24T07:43:51.847Z,902.40
2023-04-24T07:46:18.563Z,893.42
2023-04-24T07:48:45.377Z,888.38
2023-04-24T07:51:14.239Z,886.07
2023-04-24T07:53:41.119Z,877.95
2023-04-24T07:56:07.985Z,874.60
2023-04-24T07:58:35.195Z,871.50
2023-04-24T08:01:02.046Z,873.63
2023-04-24T08:03:28.927Z,882.42
2023-04-24T08:05:56.243Z,879.97
2023-04-24T08:08:23.713Z,880.93
2023-04-24T08:10:51.047Z,890.42
2023-04-24T08:13:17.838Z,899.50
2023-04-24T08:15:44.520Z,892.88
2023-04-24T08:18:12.954Z,909.15
2023-04-24T08:20:40.045Z,910.03
2023-04-24T08:23:06.723Z,911.10
2023-04-24T08:25:33.571Z,914.70
2023-04-24T08:28:00.399Z,920.05
2023-04-24T08:30:27.056Z,915.80
2023-04-24T08:32:53.746Z,918.00
2023-04-24T08:35:20.504Z,917.08
2023-04-24T08:37:47.200Z,908.10
2023-04-24T08:40:15.815Z,913.10
2023-04-24T08:42:45.986Z,921.27
2023-04-24T08:45:13.894Z,914.63
2023-04-24T08:47:41.543Z,929.25
2023-04-24T08:50:09.600Z,918.20
2023-04-24T08:52:36.928Z,923.70
2023-04-24T08:55:03.784Z,956.90
2023-04-24T08:57:32.011Z,979.67
2023-04-24T08:59:59.324Z,980.65
2023-04-24T09:02:27.053Z,993.75
2023-04-24T09:04:54.684Z,1010.65
2023-04-24T09:07:25.700Z,1011.38
2023-04-24T09:09:53.374Z,1014.35
2023-04-24T09:12:20.385Z,995.92
2023-04-24T09:14:47.191Z,1010.88
2023-04-24T09:17:14.075Z,1011.45
2023-04-24T09:19:41.787Z,1003.45
2023-04-24T09:22:10.039Z,987.88
2023-04-24T09:24:36.901Z,975.92
2023-04-24T09:27:04.108Z,964.97
2023-04-24T09:29:31.060Z,968.95
2023-04-24T09:31:57.740Z,964.40
2023-04-24T09:34:28.532Z,972.38
2023-04-24T09:36:56.000Z,981.38
2023-04-24T09:39:22.698Z,998.88
2023-04-24T09:41:54.857Z,1037.93
2023-04-24T09:44:23.586Z,1053.72
2023-04-24T09:46:52.694Z,1056.65
2023-04-24T09:49:31.290Z,1062.63
2023-04-24T09:52:06.092Z,1048.97
2023-04-24T09:54:32.956Z,1029.13
2023-04-24T09:57:00.985Z,1006.10
2023-04-24T09:59:27.812Z,997.28
2023-04-24T10:01:54.613Z,1001.35
2023-04-24T10:04:25.192Z,1016.55
2023-04-24T10:06:54.440Z,1042.38
2023-04-24T10:09:23.405Z,1048.72
2023-04-24T10:11:52.044Z,1050.10
2023-04-24T10:14:21.596Z,1051.60
2023-04-24T10:16:49.251Z,1048.13
2023-04-24T10:19:17.559Z,1051.55
2023-04-24T10:21:47.887Z,1052.90
2023-04-24T10:24:16.669Z,1060.93
2023-04-24T10:26:44.455Z,1041.35
2023-04-24T10:29:16.497Z,1023.75
2023-04-24T10:31:46.427Z,1029.73
2023-04-24T10:34:15.287Z,1033.45
2023-04-24T10:36:46.929Z,1040.18
2023-04-24T10:39:15.940Z,1048.80
2023-04-24T10:41:42.846Z,1059.97
2023-04-24T10:44:15.097Z,1062.18
2023-04-24T10:46:46.943Z,1070.80
2023-04-24T10:49:13.746Z,1083.53
2023-04-24T10:51:48.962Z,1068.07
2023-04-24T10:54:30.130Z,1077.40
2023-04-24T10:57:21.738Z,1062.53
2023-04-24T10:59:51.388Z,1056.72
2023-04-24T11:02:19.282Z,1056.22
2023-04-24T11:04:46.625Z,1046.63
2023-04-24T11:07:13.593Z,1047.88
2023-04-24T11:09:43.885Z,1045.40
2023-04-24T11:12:12.511Z,1042.43
2023-04-24T11:14:58.162Z,1038.47
2023-04-24T11:17:29.930Z,1051.50
2023-04-24T11:20:12.219Z,1062.32
2023-04-24T11:22:45.931Z,1071.40
2023-04-24T11:25:15.337Z,1075.25
2023-04-24T11:27:49.665Z,1078.63
2023-04-24T11:30:19.804Z,1063.47
2023-04-24T11:32:50.877Z,1058.13
2023-04-24T11:35:19.993Z,1049.40
2023-04-24T11:40:29.332Z,1038.93
2023-04-24T11:42:56.543Z,1038.60
2023-04-24T11:45:29.197Z,1039.18
2023-04-24T11:47:56.053Z,1031.25
2023-04-24T11:50:26.761Z,1046.32
2023-04-24T11:52:53.573Z,1063.20
2023-04-24T11:55:20.260Z,1079.77
2023-04-24T11:57:48.904Z,1091.25
2023-04-24T12:00:23.488Z,1091.65
2023-04-24T12:02:51.442Z,1073.07
2023-04-24T12:05:27.154Z,1061.80
2023-04-24T12:07:55.379Z,1054.07
2023-04-24T12:10:26.402Z,1046.50
2023-04-24T12:12:56.882Z,1040.97
2023-04-24T12:15:23.871Z,1044.38
2023-04-24T12:17:53.186Z,1039.47
2023-04-24T12:20:28.601Z,1018.22
2023-04-24T12:22:57.722Z,1014.20
2023-04-24T12:25:27.071Z,1011.42
2023-04-24T12:27:56.226Z,1002.17
2023-04-24T12:30:28.271Z,994.75
2023-04-24T12:32:56.084Z,988.17
2023-04-24T12:35:24.879Z,994.38
2023-04-24T12:37:51.606Z,995.75
2023-04-24T12:40:20.929Z,995.55
2023-04-24T12:42:51.978Z,992.20
2023-04-24T12:45:20.234Z,997.55
2023-04-24T12:47:47.485Z,996.17
2023-04-24T12:50:15.997Z,994.47
2023-04-24T12:52:43.991Z,995.50
2023-04-24T12:55:13.254Z,995.33
2023-04-24T12:57:41.116Z,999.47
2023-04-24T13:00:09.296Z,998.40
2023-04-24T13:02:36.438Z,995.40
2023-04-24T13:05:03.582Z,982.63
2023-04-24T13:07:30.262Z,976.80
2023-04-24T13:09:57.925Z,983.83
2023-04-24T13:12:27.617Z,980.97
2023-04-24T13:14:54.946Z,979.22
2023-04-24T13:17:23.369Z,987.65
2023-04-24T13:19:52.406Z,990.45
2023-04-24T13:22:22.506Z,993.15
2023-04-24T13:24:51.805Z,994.28
2023-04-24T13:27:19.051Z,988.67
2023-04-24T13:29:46.008Z,995.17
2023-04-24T13:32:12.762Z,994.10
2023-04-24T13:34:39.656Z,992.22
2023-04-24T13:37:06.694Z,988.08
2023-04-24T13:39:33.382Z,992.92
2023-04-24T13:42:01.955Z,993.30
2023-04-24T13:44:29.900Z,1003.35
2023-04-24T13:46:57.832Z,988.33
2023-04-24T13:49:28.421Z,1002.10
2023-04-24T13:51:56.732Z,988.67
2023-04-24T13:54:26.469Z,991.90
2023-04-24T13:56:53.607Z,988.63
2023-04-24T13:59:22.289Z,981.80
2023-04-24T14:01:49.370Z,974.40
2023-04-24T14:04:16.659Z,971.80
2023-04-24T14:06:44.427Z,962.40
2023-04-24T14:09:11.143Z,959.83
2023-04-24T14:11:37.871Z,954.45
2023-04-24T14:14:04.909Z,964.05
2023-04-24T14:16:31.987Z,974.28
2023-04-24T14:18:58.763Z,965.63
2023-04-24T14:21:25.582Z,978.40
2023-04-24T14:23:52.210Z,979.50
2023-04-24T14:26:18.903Z,980.20
2023-04-24T14:28:45.558Z,992.67
2023-04-24T14:31:12.868Z,987.90
2023-04-24T14:33:39.507Z,985.70
2023-04-24T14:36:06.724Z,983.53
2023-04-24T14:38:33.653Z,984.83
2023-04-24T14:41:07.044Z,988.78
2023-04-24T14:43:36.096Z,981.67
2023-04-24T14:46:03.550Z,985.33
2023-04-24T14:48:30.327Z,983.67
2023-04-24T14:50:56.937Z,992.57
2023-04-24T14:53:23.932Z,990.40
2023-04-24T14:55:50.764Z,993.08
2023-04-24T14:58:17.655Z,991.15
2023-04-24T15:00:44.354Z,981.85
2023-04-24T15:03:11.495Z,977.50
2023-04-24T15:05:38.403Z,988.93
2023-04-24T15:08:05.410Z,986.85
2023-04-24T15:10:32.106Z,991.00
2023-04-24T15:12:58.761Z,992.75
2023-04-24T15:15:25.578Z,991.20
2023-04-24T15:17:52.196Z,989.97
2023-04-24T15:20:19.081Z,991.97
2023-04-24T15:22:45.833Z,991.10
2023-04-24T15:25:12.566Z,984.42
2023-04-24T15:27:46.636Z,981.25
2023-04-24T15:30:14.659Z,979.70
2023-04-24T15:32:41.816Z,981.70
2023-04-24T15:35:10.196Z,982.53
2023-04-24T15:37:38.239Z,986.78
2023-04-24T15:40:07.834Z,979.60
2023-04-24T15:42:34.793Z,987.45
2023-04-24T15:45:01.438Z,984.33
2023-04-24T15:47:28.132Z,980.55
2023-04-24T15:49:54.825Z,980.10
2023-04-24T15:52:21.933Z,979.85
2023-04-24T15:54:48.607Z,983.42
2023-04-24T15:57:15.542Z,978.33
2023-04-24T15:59:42.616Z,972.67
2023-04-24T16:02:19.285Z,977.28
2023-04-24T16:04:50.345Z,982.97
2023-04-24T16:07:20.283Z,977.55
2023-04-24T16:09:47.224Z,979.50
2023-04-24T16:12:14.648Z,980.92
2023-04-24T16:14:41.708Z,983.60
2023-04-24T16:17:08.491Z,993.05
2023-04-24T16:19:35.257Z,992.17
2023-04-24T16:22:03.211Z,980.63
2023-04-24T16:24:30.069Z,987.72
2023-04-24T16:26:56.767Z,989.17
2023-04-24T16:29:23.530Z,989.47
2023-04-24T16:31:50.620Z,1000.80
2023-04-24T16:34:17.456Z,999.35
2023-04-24T16:36:44.244Z,994.47
2023-04-24T16:39:10.820Z,999.80
2023-04-24T16:41:37.472Z,998.05
2023-04-24T16:44:04.210Z,1002.80
2023-04-24T16:46:30.895Z,987.60
2023-04-24T16:48:58.354Z,993.47
2023-04-24T16:51:25.431Z,983.42
2023-04-24T16:53:52.102Z,987.20
2023-04-24T16:56:18.734Z,982.63
2023-04-24T16:58:45.754Z,977.20
2023-04-24T17:01:12.617Z,981.35
2023-04-24T17:03:39.514Z,983.75
2023-04-24T17:06:06.799Z,981.58
2023-04-24T17:08:33.412Z,977.45
2023-04-24T17:11:00.065Z,983.13
2023-04-24T17:13:26.709Z,985.78
2023-04-24T17:15:53.434Z,980.38
2023-04-24T17:18:20.120Z,983.05
2023-04-24T17:20:46.746Z,979.85
2023-04-24T17:23:13.643Z,976.65
2023-04-24T17:25:40.483Z,963.58
2023-04-24T17:28:22.979Z,960.17
2023-04-24T17:30:49.673Z,954.55
2023-04-24T17:33:16.328Z,953.65
2023-04-24T17:35:42.999Z,956.15
2023-04-24T17:38:09.623Z,960.53
2023-04-24T17:40:38.018Z,960.08
2023-04-24T17:43:04.805Z,960.03
2023-04-24T17:45:32.383Z,965.67
2023-04-24T17:47:59.177Z,965.28
2023-04-24T17:50:25.995Z,954.55
2023-04-24T17:52:52.697Z,957.50
2023-04-24T17:55:19.425Z,959.85
2023-04-24T17:57:46.054Z,949.38
2023-04-24T18:00:13.301Z,946.15
2023-04-24T18:02:40.171Z,949.40
2023-04-24T18:05:07.149Z,942.88
2023-04-24T18:07:34.052Z,936.92
2023-04-24T18:10:00.737Z,927.92
2023-04-24T18:12:27.539Z,917.00
2023-04-24T18:15:06.262Z,916.95
2023-04-24T18:17:40.293Z,914.83
2023-04-24T18:20:07.462Z,921.40
2023-04-24T18:22:34.290Z,911.50
2023-04-24T18:25:01.162Z,905.20
2023-04-24T18:27:31.843Z,911.00
2023-04-24T18:29:59.236Z,905.60
2023-04-24T18:32:26.967Z,903.22
2023-04-24T18:34:53.885Z,899.50
2023-04-24T18:37:20.520Z,895.85
2023-04-24T18:39:47.341Z,905.53
2023-04-24T18:42:14.239Z,895.67
2023-04-24T18:44:42.673Z,900.42
2023-04-24T18:47:09.852Z,892.05
2023-04-24T18:49:36.593Z,897.83
2023-04-24T18:52:03.728Z,890.80
2023-04-24T18:54:31.540Z,890.58
2023-04-24T18:56:58.199Z,892.70
2023-04-24T18:59:24.861Z,899.58
2023-04-24T19:01:51.882Z,898.85
2023-04-24T19:04:20.652Z,895.70
2023-04-24T19:06:47.589Z,893.75
2023-04-24T19:09:14.263Z,892.60
2023-04-24T19:11:41.706Z,889.00
2023-04-24T19:14:08.451Z,894.70
2023-04-24T19:16:35.217Z,892.63
2023-04-24T19:19:03.671Z,896.95
2023-04-24T19:21:33.244Z,892.25
2023-04-24T19:24:00.234Z,898.70
2023-04-24T19:26:28.208Z,894.40
2023-04-24T19:28:57.632Z,909.63
2023-04-24T19:31:24.920Z,892.30
2023-04-24T19:33:51.590Z,898.60
2023-04-24T19:36:18.266Z,895.10
2023-04-24T19:38:45.512Z,895.80
2023-04-24T19:41:12.719Z,897.45
2023-04-24T19:43:39.996Z,896.58
2023-04-24T19:46:06.826Z,890.28
2023-04-24T19:48:33.595Z,889.50
2023-04-24T19:51:01.355Z,885.28
2023-04-24T19:53:28.672Z,892.55
2023-04-24T19:55:55.768Z,889.00
2023-04-24T19:58:22.403Z,882.25
2023-04-24T20:00:49.136Z,879.97
2023-04-24T20:03:25.395Z,882.53
2023-04-24T20:05:58.391Z,870.97
2023-04-24T20:08:24.997Z,874.90
2023-04-24T20:10:53.675Z,870.22
2023-04-24T20:13:20.464Z,865.47
2023-04-24T20:15:47.087Z,869.53
2023-04-24T20:18:13.877Z,867.95
2023-04-24T20:20:41.591Z,863.85
2023-04-24T20:23:08.432Z,868.92
2023-04-24T20:25:36.120Z,865.78
2023-04-24T20:28:02.883Z,871.10
2023-04-24T20:30:31.330Z,876.77
2023-04-24T20:32:58.511Z,877.55
2023-04-24T20:35:25.207Z,866.35
2023-04-24T20:37:53.531Z,865.25
2023-04-24T20:40:20.207Z,860.88
2023-04-24T20:42:46.901Z,865.40
2023-04-24T20:45:13.504Z,848.97
2023-04-24T20:47:40.129Z,859.15
2023-04-24T20:50:07.527Z,858.60
2023-04-24T20:52:34.553Z,858.60
2023-04-24T20:55:01.251Z,865.67
2023-04-24T20:57:27.973Z,857.90
2023-04-24T20:59:55.016Z,861.67
2023-04-24T21:02:21.780Z,856.40
2023-04-24T21:04:48.459Z,849.00
2023-04-24T21:07:15.646Z,847.67
2023-04-24T21:09:42.317Z,849.42
2023-04-24T21:12:08.982Z,833.40
2023-04-24T21:14:35.675Z,826.63
2023-04-24T21:17:03.174Z,832.88
2023-04-24T21:19:29.894Z,833.65
2023-04-24T21:21:56.550Z,826.37
2023-04-24T21:24:23.179Z,821.17
2023-04-24T21:26:50.099Z,817.15
2023-04-24T21:29:17.084Z,815.03
2023-04-24T21:31:44.247Z,818.65
2023-04-24T21:34:10.985Z,822.67
2023-04-24T21:36:37.747Z,823.60
2023-04-24T21:39:04.379Z,819.80
2023-04-24T21:41:31.454Z,818.50
2023-04-24T21:43:59.134Z,821.65
2023-04-24T21:46:26.588Z,822.28
2023-04-24T21:48:53.306Z,816.40
2023-04-24T21:51:20.368Z,816.90
2023-04-24T21:53:47.267Z,816.38
2023-04-24T21:56:14.259Z,814.63
2023-04-24T21:58:41.325Z,813.10
2023-04-24T22:01:08.686Z,821.33
2023-04-24T22:03:35.634Z,800.45
2023-04-24T22:06:02.374Z,816.50
2023-04-24T22:08:29.067Z,811.33
2023-04-24T22:10:56.427Z,809.83
2023-04-24T22:13:23.172Z,811.88
2023-04-24T22:15:53.342Z,801.55
2023-04-24T22:18:20.050Z,810.85
2023-04-24T22:20:47.172Z,802.60
2023-04-24T22:23:13.930Z,808.08
2023-04-24T22:25:40.626Z,806.13
2023-04-24T22:28:07.304Z,811.10
2023-04-24T22:30:34.016Z,801.55
2023-04-24T22:33:01.387Z,806.80
2023-04-24T22:35:28.088Z,804.38
2023-04-24T22:37:55.505Z,800.28
2023-04-24T22:40:23.108Z,807.07
2023-04-24T22:42:49.794Z,805.15
2023-04-24T22:45:17.462Z,810.50
2023-04-24T22:47:44.243Z,800.83
2023-04-24T22:50:11.297Z,810.85
2023-04-24T22:52:37.927Z,802.22
2023-04-24T22:55:06.653Z,811.65
2023-04-24T22:57:33.425Z,817.58
2023-04-24T23:00:00.169Z,819.07
